createdAt,value
2018-01-16T00:01:52.737Z,2.30
2018-01-16T00:04:20.878Z,2.40
2018-01-16T00:06:49.042Z,2.40
2018-01-16T00:09:17.170Z,2.40
2018-01-16T00:11:45.322Z,2.30
2018-01-16T00:14:13.448Z,2.30
2018-01-16T00:16:41.629Z,2.30
2018-01-16T00:19:09.761Z,2.30
2018-01-16T00:21:37.916Z,2.30
2018-01-16T00:24:06.041Z,2.30
2018-01-16T00:26:34.213Z,2.30
2018-01-16T00:29:02.345Z,2.30
2018-01-16T00:31:30.478Z,2.30
2018-01-16T00:33:58.636Z,2.30
2018-01-16T00:36:26.769Z,2.30
2018-01-16T00:38:54.932Z,2.30
2018-01-16T00:41:23.056Z,2.30
2018-01-16T00:43:51.217Z,2.20
2018-01-16T00:46:19.349Z,2.20
2018-01-16T00:48:47.520Z,2.20
2018-01-16T00:51:15.645Z,2.20
2018-01-16T00:53:43.802Z,2.20
2018-01-16T00:56:11.945Z,2.20
2018-01-16T00:58:40.101Z,2.20
2018-01-16T01:01:08.236Z,2.30
2018-01-16T01:03:36.386Z,2.30
2018-01-16T01:06:05.284Z,2.30
2018-01-16T01:08:33.441Z,2.30
2018-01-16T01:11:02.340Z,2.30
2018-01-16T01:13:30.498Z,2.30
2018-01-16T01:15:58.626Z,2.30
2018-01-16T01:18:26.781Z,2.30
2018-01-16T01:20:54.913Z,2.20
2018-01-16T01:23:23.068Z,2.20
2018-01-16T01:25:51.205Z,2.20
2018-01-16T01:28:19.353Z,2.10
2018-01-16T01:30:47.495Z,2.10
2018-01-16T01:33:15.669Z,2.10
2018-01-16T01:35:43.796Z,2.10
2018-01-16T01:38:11.956Z,2.10
2018-01-16T01:40:40.086Z,2.10
2018-01-16T01:43:08.250Z,2.10
2018-01-16T01:45:36.368Z,2.20
2018-01-16T01:48:05.291Z,2.20
2018-01-16T01:50:33.424Z,2.20
2018-01-16T01:53:02.338Z,2.30
2018-01-16T01:55:30.466Z,2.30
2018-01-16T01:57:58.617Z,2.20
2018-01-16T02:00:26.741Z,2.30
2018-01-16T02:02:54.896Z,2.30
2018-01-16T02:05:23.017Z,2.30
2018-01-16T02:07:51.169Z,2.30
2018-01-16T02:10:19.288Z,2.30
2018-01-16T02:12:47.442Z,2.30
2018-01-16T02:15:15.572Z,2.30
2018-01-16T02:17:43.724Z,2.30
2018-01-16T02:20:11.851Z,2.30
2018-01-16T02:22:40.009Z,2.30
2018-01-16T02:25:08.132Z,2.30
2018-01-16T02:27:36.280Z,2.30
2018-01-16T02:30:04.406Z,2.30
2018-01-16T02:32:33.320Z,2.40
2018-01-16T02:35:01.454Z,2.40
2018-01-16T02:37:29.602Z,2.40
2018-01-16T02:39:57.726Z,2.40
2018-01-16T02:42:25.878Z,2.40
2018-01-16T02:44:54.005Z,2.40
2018-01-16T02:47:22.148Z,2.30
2018-01-16T02:49:50.277Z,2.30
2018-01-16T02:52:18.430Z,2.30
2018-01-16T02:54:46.554Z,2.30
2018-01-16T02:57:14.677Z,2.30
2018-01-16T02:59:42.829Z,2.30
2018-01-16T03:02:10.957Z,2.30
2018-01-16T03:04:39.112Z,2.30
2018-01-16T03:07:07.233Z,2.30
2018-01-16T03:09:35.390Z,2.30
2018-01-16T03:12:04.283Z,2.20
2018-01-16T03:14:32.429Z,2.20
2018-01-16T03:17:00.556Z,2.20
2018-01-16T03:19:28.701Z,2.20
2018-01-16T03:21:56.822Z,2.20
2018-01-16T03:24:24.978Z,2.20
2018-01-16T03:26:53.116Z,2.20
2018-01-16T03:29:22.025Z,2.20
2018-01-16T03:31:50.154Z,2.20
2018-01-16T03:34:18.306Z,2.20
2018-01-16T03:36:46.433Z,2.20
2018-01-16T03:39:14.581Z,2.20
2018-01-16T03:41:42.705Z,2.20
2018-01-16T03:44:10.854Z,2.20
2018-01-16T03:46:38.978Z,2.20
2018-01-16T03:49:07.125Z,2.10
2018-01-16T03:51:35.253Z,2.10
2018-01-16T03:54:03.405Z,2.10
2018-01-16T03:56:31.521Z,2.10
2018-01-16T03:58:59.665Z,2.10
2018-01-16T04:01:27.800Z,2.20
2018-01-16T04:03:55.948Z,2.20
2018-01-16T04:06:24.088Z,2.20
2018-01-16T04:08:52.242Z,2.20
2018-01-16T04:11:20.366Z,2.20
2018-01-16T04:13:48.522Z,2.30
2018-01-16T04:16:16.649Z,2.30
2018-01-16T04:18:44.805Z,2.30
2018-01-16T04:21:12.937Z,2.30
2018-01-16T04:23:41.098Z,2.30
2018-01-16T04:26:09.216Z,2.40
2018-01-16T04:28:37.369Z,2.40
2018-01-16T04:31:05.492Z,2.40
2018-01-16T04:33:33.650Z,2.40
2018-01-16T04:36:01.788Z,2.50
2018-01-16T04:38:29.946Z,2.50
2018-01-16T04:40:58.840Z,2.60
2018-01-16T04:43:27.008Z,2.60
2018-01-16T04:45:55.899Z,2.60
2018-01-16T04:48:24.060Z,2.60
2018-01-16T04:50:52.968Z,2.60
2018-01-16T04:53:21.114Z,2.60
2018-01-16T04:55:49.243Z,2.70
2018-01-16T04:58:17.405Z,2.70
2018-01-16T05:00:45.533Z,2.70
2018-01-16T05:03:13.694Z,2.70
2018-01-16T05:05:41.821Z,2.70
2018-01-16T05:08:09.977Z,2.70
2018-01-16T05:10:38.104Z,2.80
2018-01-16T05:13:06.261Z,2.70
2018-01-16T05:15:34.397Z,2.70
2018-01-16T05:18:03.322Z,2.80
2018-01-16T05:20:31.450Z,2.70
2018-01-16T05:23:00.372Z,2.80
2018-01-16T05:25:28.501Z,2.80
2018-01-16T05:27:56.630Z,2.80
2018-01-16T05:30:24.790Z,2.90
2018-01-16T05:32:52.918Z,2.90
2018-01-16T05:35:21.071Z,2.90
2018-01-16T05:37:49.209Z,2.90
2018-01-16T05:40:17.375Z,2.90
2018-01-16T05:42:45.508Z,2.90
2018-01-16T05:45:13.675Z,2.90
2018-01-16T05:47:41.812Z,2.90
2018-01-16T05:50:09.978Z,2.90
2018-01-16T05:52:38.117Z,3.00
2018-01-16T05:55:06.287Z,3.00
2018-01-16T05:57:35.178Z,3.00
2018-01-16T06:00:03.339Z,3.00
2018-01-16T06:02:31.468Z,3.00
2018-01-16T06:04:59.632Z,3.10
2018-01-16T06:07:27.761Z,3.10
2018-01-16T06:09:55.912Z,3.10
2018-01-16T06:12:24.045Z,3.10
2018-01-16T06:14:52.211Z,3.20
2018-01-16T06:17:20.353Z,3.20
2018-01-16T06:19:48.513Z,3.20
2018-01-16T06:22:16.647Z,3.20
2018-01-16T06:24:44.813Z,3.20
2018-01-16T06:27:12.943Z,3.20
2018-01-16T06:29:41.097Z,3.20
2018-01-16T06:32:09.229Z,3.20
2018-01-16T06:34:37.406Z,3.10
2018-01-16T06:37:05.532Z,3.10
2018-01-16T06:39:33.694Z,3.10
2018-01-16T06:42:01.829Z,3.00
2018-01-16T06:44:29.992Z,3.00
2018-01-16T06:46:58.121Z,3.00
2018-01-16T06:49:26.278Z,3.00
2018-01-16T06:51:54.455Z,3.00
2018-01-16T06:54:22.610Z,3.00
2018-01-16T06:56:50.738Z,3.00
2018-01-16T06:59:18.947Z,3.00
2018-01-16T07:01:47.053Z,3.00
2018-01-16T07:04:15.218Z,3.00
2018-01-16T07:06:43.355Z,3.00
2018-01-16T07:09:11.517Z,3.00
2018-01-16T07:11:39.650Z,3.00
2018-01-16T07:14:07.821Z,3.00
2018-01-16T07:16:35.957Z,3.00
2018-01-16T07:19:04.113Z,3.00
2018-01-16T07:21:32.258Z,3.00
2018-01-16T07:24:00.417Z,3.10
2018-01-16T07:26:28.544Z,3.10
2018-01-16T07:28:56.707Z,3.10
2018-01-16T07:31:24.834Z,3.20
2018-01-16T07:33:52.994Z,3.20
2018-01-16T07:36:21.129Z,3.30
2018-01-16T07:38:49.293Z,3.30
2018-01-16T07:41:17.439Z,3.30
2018-01-16T07:43:45.569Z,3.30
2018-01-16T07:46:13.732Z,3.40
2018-01-16T07:48:41.865Z,3.40
2018-01-16T07:51:10.787Z,3.50
2018-01-16T07:53:38.938Z,3.50
2018-01-16T07:56:07.866Z,3.50
2018-01-16T07:58:36.035Z,3.50
2018-01-16T08:01:04.223Z,3.60
2018-01-16T08:03:32.352Z,3.60
2018-01-16T08:06:00.513Z,3.60
2018-01-16T08:08:29.405Z,3.60
2018-01-16T08:10:57.571Z,3.70
2018-01-16T08:13:25.705Z,3.70
2018-01-16T08:15:53.872Z,3.70
2018-01-16T08:18:22.010Z,3.70
2018-01-16T08:20:50.180Z,3.70
2018-01-16T08:23:19.992Z,3.70
2018-01-16T08:25:48.153Z,3.70
2018-01-16T08:28:17.057Z,3.80
2018-01-16T08:30:45.217Z,3.70
2018-01-16T08:33:14.115Z,3.80
2018-01-16T08:35:42.270Z,3.80
2018-01-16T08:38:10.401Z,3.80
2018-01-16T08:40:38.709Z,3.80
2018-01-16T08:43:06.833Z,3.80
2018-01-16T08:45:34.994Z,3.90
2018-01-16T08:48:03.248Z,4.00
2018-01-16T08:50:31.412Z,4.00
2018-01-16T08:53:00.293Z,4.00
2018-01-16T08:55:28.457Z,4.00
2018-01-16T08:57:56.583Z,4.10
2018-01-16T09:00:24.739Z,4.10
2018-01-16T09:02:52.888Z,4.10
2018-01-16T09:05:21.030Z,4.10
2018-01-16T09:07:50.661Z,4.10
2018-01-16T09:10:18.986Z,4.00
2018-01-16T09:12:47.112Z,4.00
2018-01-16T09:15:15.382Z,4.00
2018-01-16T09:17:43.529Z,4.00
2018-01-16T09:20:11.683Z,4.10
2018-01-16T09:22:39.817Z,4.10
2018-01-16T09:25:07.974Z,4.10
2018-01-16T09:27:36.104Z,4.10
2018-01-16T09:30:04.276Z,4.20
2018-01-16T09:32:32.427Z,4.20
2018-01-16T09:35:00.584Z,4.20
2018-01-16T09:37:28.714Z,4.30
2018-01-16T09:39:56.865Z,4.40
2018-01-16T09:42:24.985Z,4.50
2018-01-16T09:44:53.136Z,4.50
2018-01-16T09:47:21.270Z,4.50
2018-01-16T09:49:50.176Z,4.50
2018-01-16T09:52:18.297Z,4.50
2018-01-16T09:54:46.424Z,4.50
2018-01-16T09:57:14.580Z,4.50
2018-01-16T09:59:42.709Z,4.40
2018-01-16T10:02:10.853Z,4.40
2018-01-16T10:04:38.985Z,4.40
2018-01-16T10:07:07.128Z,4.40
2018-01-16T10:09:35.262Z,4.40
2018-01-16T10:12:03.412Z,4.40
2018-01-16T10:14:31.531Z,4.50
2018-01-16T10:16:59.686Z,4.50
2018-01-16T10:19:27.809Z,4.50
2018-01-16T10:21:55.957Z,4.50
2018-01-16T10:24:24.082Z,4.50
2018-01-16T10:26:52.230Z,4.50
2018-01-16T10:29:20.345Z,4.50
2018-01-16T10:31:48.495Z,4.50
2018-01-16T10:34:16.611Z,4.50
2018-01-16T10:36:44.760Z,4.50
2018-01-16T10:39:12.892Z,4.50
2018-01-16T10:41:41.044Z,4.60
2018-01-16T10:44:09.161Z,4.70
2018-01-16T10:46:37.309Z,4.80
2018-01-16T10:49:05.437Z,4.80
2018-01-16T10:51:33.584Z,4.80
2018-01-16T10:54:01.708Z,4.80
2018-01-16T10:56:29.825Z,4.80
2018-01-16T10:58:57.970Z,4.80
2018-01-16T11:01:26.088Z,4.80
2018-01-16T11:03:54.248Z,4.80
2018-01-16T11:06:22.376Z,4.80
2018-01-16T11:08:50.548Z,4.80
2018-01-16T11:11:18.668Z,4.70
2018-01-16T11:13:46.809Z,4.70
2018-01-16T11:16:14.929Z,4.80
2018-01-16T11:18:43.125Z,4.80
2018-01-16T11:21:11.246Z,4.80
2018-01-16T11:23:39.398Z,4.90
2018-01-16T11:26:07.529Z,4.90
2018-01-16T11:28:35.712Z,5.00
2018-01-16T11:31:03.834Z,5.00
2018-01-16T11:33:32.020Z,5.00
2018-01-16T11:36:00.906Z,5.00
2018-01-16T11:38:29.052Z,5.00
2018-01-16T11:40:57.177Z,5.00
2018-01-16T11:43:25.331Z,4.90
2018-01-16T11:45:53.449Z,4.90
2018-01-16T11:48:21.601Z,4.90
2018-01-16T11:50:49.734Z,4.90
2018-01-16T11:53:18.652Z,4.90
2018-01-16T11:55:46.774Z,4.90
2018-01-16T11:58:14.915Z,4.90
2018-01-16T12:00:43.075Z,4.90
2018-01-16T12:03:11.198Z,4.90
2018-01-16T12:05:39.366Z,4.90
2018-01-16T12:08:07.488Z,4.80
2018-01-16T12:10:35.656Z,4.80
2018-01-16T12:13:03.781Z,4.80
2018-01-16T12:15:31.950Z,4.80
2018-01-16T12:18:00.082Z,4.80
2018-01-16T12:20:28.234Z,4.80
2018-01-16T12:22:56.365Z,4.80
2018-01-16T12:25:24.505Z,4.80
2018-01-16T12:27:52.654Z,4.80
2018-01-16T12:30:21.565Z,4.80
2018-01-16T12:32:49.684Z,4.80
2018-01-16T12:35:17.814Z,4.80
2018-01-16T12:37:45.961Z,4.70
2018-01-16T12:40:14.085Z,4.70
2018-01-16T12:42:42.240Z,4.70
2018-01-16T12:45:10.362Z,4.60
2018-01-16T12:47:38.512Z,4.60
2018-01-16T12:50:06.634Z,4.60
2018-01-16T12:52:34.776Z,4.60
2018-01-16T12:55:02.905Z,4.60
2018-01-16T12:57:31.052Z,4.60
2018-01-16T12:59:59.187Z,4.60
2018-01-16T13:02:27.374Z,4.60
2018-01-16T13:04:55.508Z,4.50
2018-01-16T13:07:23.659Z,4.50
2018-01-16T13:09:51.785Z,4.50
2018-01-16T13:12:19.937Z,4.50
2018-01-16T13:14:48.159Z,4.50
2018-01-16T13:17:17.071Z,4.40
2018-01-16T13:19:45.189Z,4.40
2018-01-16T13:22:13.374Z,4.40
2018-01-16T13:24:41.502Z,4.40
2018-01-16T13:27:09.655Z,4.40
2018-01-16T13:29:37.776Z,4.40
2018-01-16T13:32:05.949Z,4.30
2018-01-16T13:34:34.109Z,4.30
2018-01-16T13:37:02.280Z,4.30
2018-01-16T13:39:30.414Z,4.30
2018-01-16T13:41:58.562Z,4.30
2018-01-16T13:44:26.697Z,4.30
2018-01-16T13:46:54.849Z,4.30
2018-01-16T13:49:23.062Z,4.30
2018-01-16T13:51:51.205Z,4.30
2018-01-16T13:54:19.328Z,4.30
2018-01-16T13:56:47.523Z,4.30
2018-01-16T13:59:15.660Z,4.30
2018-01-16T14:01:43.880Z,4.20
2018-01-16T14:04:12.050Z,4.20
2018-01-16T14:06:40.968Z,4.20
2018-01-16T14:09:09.106Z,4.20
2018-01-16T14:11:38.099Z,4.20
2018-01-16T14:14:06.983Z,4.20
2018-01-16T14:16:35.139Z,4.20
2018-01-16T14:19:04.046Z,4.20
2018-01-16T14:21:32.211Z,4.20
2018-01-16T14:24:01.124Z,4.20
2018-01-16T14:26:29.279Z,4.10
2018-01-16T14:28:58.198Z,4.20
2018-01-16T14:31:26.347Z,4.10
2018-01-16T14:33:55.238Z,4.10
2018-01-16T14:36:23.384Z,4.10
2018-01-16T14:38:51.510Z,4.10
2018-01-16T14:41:19.661Z,4.10
2018-01-16T14:43:47.781Z,4.10
2018-01-16T14:46:15.929Z,4.10
2018-01-16T14:48:44.052Z,4.10
2018-01-16T14:51:12.210Z,4.10
2018-01-16T14:53:40.338Z,4.10
2018-01-16T14:56:08.461Z,4.00
2018-01-16T14:58:36.655Z,4.00
2018-01-16T15:01:05.630Z,4.00
2018-01-16T15:03:33.893Z,4.00
2018-01-16T15:06:02.054Z,4.00
2018-01-16T15:08:30.308Z,4.00
2018-01-16T15:10:58.455Z,4.00
2018-01-16T15:13:26.601Z,4.00
2018-01-16T15:15:54.729Z,4.00
2018-01-16T15:18:22.927Z,4.00
2018-01-16T15:20:51.059Z,4.00
2018-01-16T15:23:19.208Z,4.00
2018-01-16T15:25:48.147Z,4.00
2018-01-16T15:28:16.357Z,4.00
2018-01-16T15:30:44.526Z,4.00
2018-01-16T15:33:12.753Z,3.90
2018-01-16T15:35:40.913Z,3.90
2018-01-16T15:38:09.091Z,3.90
2018-01-16T15:40:37.259Z,3.90
2018-01-16T15:43:06.193Z,3.90
2018-01-16T15:45:34.323Z,3.90
2018-01-16T15:48:03.236Z,3.90
2018-01-16T15:50:31.356Z,3.90
2018-01-16T15:52:59.509Z,3.80
2018-01-16T15:55:27.659Z,3.80
2018-01-16T15:57:55.814Z,3.70
2018-01-16T16:00:23.941Z,3.70
2018-01-16T16:02:52.116Z,3.60
2018-01-16T16:05:20.274Z,3.60
2018-01-16T16:07:48.433Z,3.60
2018-01-16T16:10:16.570Z,3.60
2018-01-16T16:12:45.490Z,3.60
2018-01-16T16:15:13.609Z,3.60
2018-01-16T16:17:41.757Z,3.60
2018-01-16T16:20:09.880Z,3.60
2018-01-16T16:22:38.032Z,3.60
2018-01-16T16:25:06.153Z,3.60
2018-01-16T16:27:34.304Z,3.50
2018-01-16T16:30:02.429Z,3.50
2018-01-16T16:32:30.590Z,3.50
2018-01-16T16:34:58.713Z,3.50
2018-01-16T16:37:26.873Z,3.50
2018-01-16T16:39:55.766Z,3.60
2018-01-16T16:42:23.964Z,3.60
2018-01-16T16:44:52.090Z,3.60
2018-01-16T16:47:20.233Z,3.60
2018-01-16T16:49:48.368Z,3.60
2018-01-16T16:52:16.562Z,3.60
2018-01-16T16:54:44.697Z,3.60
2018-01-16T16:57:12.850Z,3.60
2018-01-16T16:59:40.986Z,3.50
2018-01-16T17:02:09.206Z,3.30
2018-01-16T17:04:37.336Z,3.20
2018-01-16T17:07:05.514Z,3.00
2018-01-16T17:09:33.660Z,2.90
2018-01-16T17:12:01.862Z,2.80
2018-01-16T17:14:30.123Z,2.70
2018-01-16T17:16:58.311Z,2.60
2018-01-16T17:19:26.466Z,2.50
2018-01-16T17:21:54.594Z,2.40
2018-01-16T17:24:22.766Z,2.30
2018-01-16T17:26:50.898Z,2.30
2018-01-16T17:29:19.058Z,2.20
2018-01-16T17:31:47.184Z,2.20
2018-01-16T17:34:15.493Z,2.20
2018-01-16T17:36:43.626Z,2.20
2018-01-16T17:39:11.802Z,2.10
2018-01-16T17:41:39.926Z,2.10
2018-01-16T17:44:08.089Z,2.10
2018-01-16T17:46:36.314Z,2.10
2018-01-16T17:49:04.555Z,2.10
2018-01-16T17:51:33.453Z,2.10
2018-01-16T17:54:01.610Z,2.10
2018-01-16T17:56:30.138Z,2.00
2018-01-16T17:58:58.335Z,2.10
2018-01-16T18:01:26.477Z,2.10
2018-01-16T18:03:54.634Z,2.00
2018-01-16T18:06:22.770Z,2.10
2018-01-16T18:08:50.932Z,2.10
2018-01-16T18:11:24.396Z,2.10
2018-01-16T18:13:52.711Z,2.10
2018-01-16T18:16:21.619Z,2.10
2018-01-16T18:18:54.765Z,2.10
2018-01-16T18:21:22.966Z,2.10
2018-01-16T18:23:51.213Z,2.20
2018-01-16T18:26:19.337Z,2.20
2018-01-16T18:28:47.495Z,2.20
2018-01-16T18:31:15.619Z,2.20
2018-01-16T18:33:43.787Z,2.20
2018-01-16T18:36:12.005Z,2.30
2018-01-16T18:38:40.161Z,2.30
2018-01-16T18:41:08.303Z,2.30
2018-01-16T18:43:36.501Z,2.30
2018-01-16T18:46:04.680Z,2.30
2018-01-16T18:48:33.011Z,2.40
2018-01-16T18:51:01.300Z,2.40
2018-01-16T18:53:29.520Z,2.40
2018-01-16T18:55:57.715Z,2.40
2018-01-16T18:58:26.406Z,2.40
2018-01-16T19:00:54.897Z,2.40
2018-01-16T19:03:37.659Z,2.50
2018-01-16T19:06:06.096Z,2.50
2018-01-16T19:08:34.513Z,2.50
2018-01-16T19:11:03.079Z,2.50
2018-01-16T19:13:31.308Z,2.50
2018-01-16T19:16:00.431Z,2.50
2018-01-16T19:18:28.646Z,2.50
2018-01-16T19:20:56.811Z,2.50
2018-01-16T19:23:25.033Z,2.40
2018-01-16T19:25:53.230Z,2.40
2018-01-16T19:28:21.452Z,2.50
2018-01-16T19:30:49.679Z,2.50
2018-01-16T19:33:17.843Z,2.50
2018-01-16T19:35:45.979Z,2.50
2018-01-16T19:38:14.195Z,2.50
2018-01-16T19:40:42.378Z,2.50
2018-01-16T19:43:10.629Z,2.50
2018-01-16T19:45:38.846Z,2.50
2018-01-16T19:48:07.020Z,2.50
2018-01-16T19:50:35.193Z,2.50
2018-01-16T19:53:03.426Z,2.50
2018-01-16T19:55:31.603Z,2.50
2018-01-16T19:57:59.853Z,2.50
2018-01-16T20:00:28.187Z,2.50
2018-01-16T20:02:56.383Z,2.50
2018-01-16T20:05:26.217Z,2.50
2018-01-16T20:07:54.483Z,2.50
2018-01-16T20:10:22.760Z,2.50
2018-01-16T20:12:50.943Z,2.50
2018-01-16T20:15:19.125Z,2.50
2018-01-16T20:17:47.287Z,2.50
2018-01-16T20:20:16.217Z,2.50
2018-01-16T20:22:44.437Z,2.50
2018-01-16T20:25:12.621Z,2.50
2018-01-16T20:27:40.808Z,2.50
2018-01-16T20:30:09.731Z,2.50
2018-01-16T20:32:37.963Z,2.50
2018-01-16T20:35:06.168Z,2.50
2018-01-16T20:37:34.362Z,2.50
2018-01-16T20:40:02.574Z,2.50
2018-01-16T20:42:30.766Z,2.50
2018-01-16T20:44:59.726Z,2.50
2018-01-16T20:47:27.982Z,2.50
2018-01-16T20:49:56.199Z,2.50
2018-01-16T20:52:24.390Z,2.50
2018-01-16T20:54:53.340Z,2.50
2018-01-16T20:57:21.562Z,2.50
2018-01-16T20:59:49.732Z,2.50
2018-01-16T21:02:17.963Z,2.50
2018-01-16T21:04:46.170Z,2.50
2018-01-16T21:07:15.086Z,2.50
2018-01-16T21:09:43.526Z,2.60
2018-01-16T21:12:11.738Z,2.50
2018-01-16T21:14:39.904Z,2.50
2018-01-16T21:17:08.489Z,2.60
2018-01-16T21:19:36.749Z,2.50
2018-01-16T21:22:05.681Z,2.60
2018-01-16T21:24:33.980Z,2.60
2018-01-16T21:27:02.230Z,2.50
2018-01-16T21:29:30.395Z,2.50
2018-01-16T21:31:58.599Z,2.50
2018-01-16T21:34:26.895Z,2.60
2018-01-16T21:36:55.354Z,2.60
2018-01-16T21:39:23.725Z,2.60
2018-01-16T21:41:51.881Z,2.60
2018-01-16T21:44:20.060Z,2.50
2018-01-16T21:46:48.188Z,2.60
2018-01-16T21:49:16.356Z,2.60
2018-01-16T21:51:45.249Z,2.50
2018-01-16T21:54:13.454Z,2.60
2018-01-16T21:56:41.631Z,2.60
2018-01-16T21:59:09.885Z,2.50
2018-01-16T22:01:38.036Z,2.50
2018-01-16T22:04:06.468Z,2.50
2018-01-16T22:06:34.601Z,2.50
2018-01-16T22:09:02.750Z,2.50
2018-01-16T22:11:30.864Z,2.50
2018-01-16T22:13:59.018Z,2.60
2018-01-16T22:16:27.138Z,2.60
2018-01-16T22:18:55.289Z,2.60
2018-01-16T22:21:23.420Z,2.60
2018-01-16T22:23:51.606Z,2.60
2018-01-16T22:26:19.728Z,2.60
2018-01-16T22:28:47.883Z,2.50
2018-01-16T22:31:16.008Z,2.60
2018-01-16T22:33:44.150Z,2.50
2018-01-16T22:36:12.273Z,2.60
2018-01-16T22:38:40.426Z,2.60
2018-01-16T22:41:08.553Z,2.60
2018-01-16T22:43:36.677Z,2.60
2018-01-16T22:46:04.828Z,2.60
2018-01-16T22:48:32.949Z,2.60
2018-01-16T22:51:01.119Z,2.60
2018-01-16T22:53:29.233Z,2.60
2018-01-16T22:55:57.381Z,2.60
2018-01-16T22:58:25.514Z,2.60
2018-01-16T23:00:53.669Z,2.50
2018-01-16T23:03:21.808Z,2.50
2018-01-16T23:05:49.966Z,2.50
2018-01-16T23:08:18.085Z,2.60
2018-01-16T23:10:46.244Z,2.60
2018-01-16T23:13:14.369Z,2.60
2018-01-16T23:15:42.530Z,2.60
2018-01-16T23:18:10.650Z,2.60
2018-01-16T23:20:38.804Z,2.60
2018-01-16T23:23:06.920Z,2.60
2018-01-16T23:25:35.073Z,2.60
2018-01-16T23:28:03.197Z,2.60
2018-01-16T23:30:32.122Z,2.60
2018-01-16T23:33:00.248Z,2.60
2018-01-16T23:35:28.412Z,2.60
2018-01-16T23:37:56.539Z,2.60
2018-01-16T23:40:24.692Z,2.60
2018-01-16T23:42:52.813Z,2.60
2018-01-16T23:45:20.962Z,2.60
2018-01-16T23:47:49.084Z,2.60
2018-01-16T23:50:17.249Z,2.60
2018-01-16T23:52:45.373Z,2.60
2018-01-16T23:55:13.541Z,2.60
2018-01-16T23:57:41.661Z,2.60
